Time;durP1;ratioP1;P1;durP2;ratioP2;P2;SDS_P1;SDS_P2;PMS_P1;PMS_P2;Temp;Humidity;BMP_temperature;BMP_pressure;BME280_temperature;BME280_humidity;BME280_pressure;Samples;Min_cycle;Max_cycle;Signal;HPM_P1;HPM_P2
2021/01/30 00:01:01;;;;;;;;;;;2.80;97.20;;;;;;5130056;27;20514;-69
2021/01/30 00:03:27;;;;;;;121.80;45.97;;;2.70;97.10;;;;;;5129620;27;20002;-68
2021/01/30 00:05:52;;;;;;;122.63;46.10;;;2.80;97.20;;;;;;5129530;27;20562;-67
2021/01/30 00:08:18;;;;;;;;;;;2.80;97.20;;;;;;5130034;27;20038;-68
2021/01/30 00:10:44;;;;;;;113.20;44.40;;;2.80;97.20;;;;;;5129416;27;19923;-67
2021/01/30 00:13:09;;;;;;;;;;;2.80;97.30;;;;;;5129378;27;20395;-68
2021/01/30 00:15:35;;;;;;;114.90;45.63;;;2.80;97.30;;;;;;5129344;27;20504;-68
2021/01/30 00:18:01;;;;;;;105.78;43.85;;;2.80;97.40;;;;;;5129402;27;20023;-68
2021/01/30 00:20:31;;;;;;;;;;;2.80;97.40;;;;;;5129928;27;20031;-68
2021/01/30 00:22:58;;;;;;;137.27;54.22;;;2.80;97.40;;;;;;5129341;27;19911;-68
2021/01/30 00:25:27;;;;;;;146.00;58.58;;;2.80;97.30;;;;;;5129360;27;20034;-68
2021/01/30 00:27:53;;;;;;;144.88;59.65;;;2.80;97.30;;;;;;5110968;28;20023;-68
2021/01/30 00:30:21;;;;;;;113.50;47.10;;;2.80;97.30;;;;;;5129375;27;20016;-69
2021/01/30 00:32:46;;;;;;;83.63;38.75;;;2.90;97.40;;;;;;5129396;27;20077;-67
2021/01/30 00:35:12;;;;;;;;;;;2.90;97.40;;;;;;5129770;28;20387;-68
2021/01/30 00:37:38;;;;;;;84.28;37.17;;;3.00;97.50;;;;;;5110891;28;19913;-68
2021/01/30 00:40:05;;;;;;;;;;;3.00;97.50;;;;;;5129658;27;20020;-68
2021/01/30 00:42:31;;;;;;;89.82;42.20;;;3.00;97.50;;;;;;5129277;28;19990;-66
2021/01/30 00:44:57;;;;;;;83.53;38.17;;;3.00;97.40;;;;;;5129016;28;20501;-65
2021/01/30 00:47:22;;;;;;;;;;;3.00;97.40;;;;;;5129683;28;20035;-66
2021/01/30 00:49:48;;;;;;;63.60;31.05;;;2.90;97.40;;;;;;5128933;28;20299;-66
2021/01/30 00:52:17;;;;;;;71.80;35.97;;;2.90;97.40;;;;;;5129014;28;20126;-66
2021/01/30 00:54:43;;;;;;;69.45;32.58;;;3.00;97.40;;;;;;5129058;28;20027;-66
2021/01/30 00:57:09;;;;;;;71.93;35.75;;;3.00;97.40;;;;;;5129167;28;20027;-66
2021/01/30 00:59:35;;;;;;;66.28;30.45;;;3.00;97.30;;;;;;5129085;27;20310;-66
2021/01/30 01:02:01;;;;;;;;;;;3.00;97.40;;;;;;5129336;28;20110;-67
2021/01/30 01:04:27;;;;;;;45.13;23.75;;;3.00;97.30;;;;;;5129011;28;19915;-66
2021/01/30 01:06:52;;;;;;;;;;;3.10;97.30;;;;;;5129508;28;20025;-66
2021/01/30 01:09:19;;;;;;;42.78;22.60;;;3.10;97.20;;;;;;5128908;27;19916;-67
2021/01/30 01:11:48;;;;;;;42.75;22.13;;;3.10;97.20;;;;;;5128833;28;20519;-66
2021/01/30 01:14:14;;;;;;;37.83;19.65;;;3.00;97.00;;;;;;5128753;27;20618;-67
2021/01/30 01:16:40;;;;;;;36.10;20.35;;;3.00;97.00;;;;;;5128878;28;20064;-67
2021/01/30 01:19:06;;;;;;;;;;;3.10;97.00;;;;;;5129495;28;20107;-64
2021/01/30 01:21:32;;;;;;;37.28;18.83;;;3.10;97.00;;;;;;5110433;28;19904;-66
2021/01/30 01:23:57;;;;;;;;;;;3.00;96.90;;;;;;5129165;28;20027;-66
2021/01/30 01:26:23;;;;;;;33.10;18.05;;;3.00;96.90;;;;;;5132371;27;20355;-66
2021/01/30 01:28:49;;;;;;;;;;;3.00;96.90;;;;;;5133095;27;20031;-67
2021/01/30 01:31:17;;;;;;;36.03;17.80;;;3.00;97.00;;;;;;5132556;27;19967;-66
2021/01/30 01:33:43;;;;;;;34.08;16.55;;;3.00;97.30;;;;;;5132448;27;20113;-66
2021/01/30 01:36:11;;;;;;;;;;;3.00;97.00;;;;;;5114407;27;20542;-66
2021/01/30 01:38:37;;;;;;;22.73;10.88;;;3.00;97.20;;;;;;5132559;27;19911;-66
2021/01/30 01:41:03;;;;;;;17.13;9.68;;;3.00;97.30;;;;;;5132468;27;20023;-65
2021/01/30 01:43:29;;;;;;;;;;;3.10;97.50;;;;;;5132818;27;20035;-66
2021/01/30 01:46:10;;;;;;;13.25;7.82;;;3.20;97.60;;;;;;5132208;27;19907;-67
2021/01/30 01:48:41;;;;;;;11.90;6.20;;;3.30;97.70;;;;;;5132528;27;20407;-66
2021/01/30 01:51:11;;;;;;;14.85;5.45;;;3.40;97.70;;;;;;5132186;27;20031;-65
2021/01/30 01:53:41;;;;;;;12.50;5.18;;;3.50;97.60;;;;;;5113723;27;20421;-66
2021/01/30 01:56:20;;;;;;;9.63;4.03;;;3.60;97.50;;;;;;5131993;27;20027;-66
2021/01/30 01:58:49;;;;;;;7.55;3.78;;;3.70;97.30;;;;;;5132266;27;20031;-65
2021/01/30 02:01:16;;;;;;;6.25;3.50;;;3.80;97.20;;;;;;5132046;27;20027;-66
2021/01/30 02:03:48;;;;;;;10.73;4.18;;;3.90;97.00;;;;;;5132132;27;20020;-66
2021/01/30 02:06:14;;;;;;;6.97;3.35;;;4.00;96.70;;;;;;5131828;27;20046;-65
2021/01/30 02:08:39;;;;;;;;;;;4.00;96.40;;;;;;5132267;27;20527;-66
2021/01/30 02:11:05;;;;;;;4.93;2.50;;;4.10;96.20;;;;;;5131678;27;19914;-66
2021/01/30 02:13:33;;;;;;;;;;;4.20;96.10;;;;;;5132215;27;20508;-66
2021/01/30 02:16:17;;;;;;;9.75;2.92;;;4.20;95.90;;;;;;5113246;27;19907;-66
2021/01/30 02:19:03;;;;;;;5.88;2.08;;;4.30;95.70;;;;;;5131675;27;20409;-66
2021/01/30 02:21:31;;;;;;;6.00;2.07;;;4.50;95.40;;;;;;5131684;27;20030;-65
2021/01/30 02:24:32;;;;;;;7.97;2.42;;;4.60;95.00;;;;;;5131418;27;20019;-64
2021/01/30 02:27:13;;;;;;;5.00;2.15;;;4.70;94.80;;;;;;5131397;27;20019;-66
2021/01/30 02:29:48;;;;;;;4.03;2.08;;;4.70;94.50;;;;;;5131496;27;20029;-66
2021/01/30 02:32:40;;;;;;;8.05;2.70;;;4.80;94.50;;;;;;5131425;27;20470;-66
2021/01/30 02:35:24;;;;;;;7.72;2.42;;;4.70;94.30;;;;;;5131300;27;20395;-65
2021/01/30 02:38:04;;;;;;;5.75;1.90;;;4.70;94.20;;;;;;5130560;27;20065;-65
2021/01/30 02:40:37;;;;;;;9.98;2.35;;;4.80;94.00;;;;;;5131176;27;20043;-66
2021/01/30 02:43:11;;;;;;;7.13;2.20;;;4.90;93.90;;;;;;5131235;27;20101;-66
2021/01/30 02:45:52;;;;;;;9.93;2.22;;;4.90;93.70;;;;;;5131025;27;20509;-66
2021/01/30 02:48:22;;;;;;;4.45;1.90;;;4.90;93.50;;;;;;5131024;27;20019;-66
2021/01/30 02:50:53;;;;;;;6.07;1.63;;;5.00;93.20;;;;;;5131089;27;20035;-66
2021/01/30 02:53:28;;;;;;;5.32;1.90;;;5.00;93.10;;;;;;5130985;27;20023;-66
2021/01/30 02:56:02;;;;;;;8.83;2.37;;;4.90;93.10;;;;;;5130881;27;20064;-67
2021/01/30 02:58:38;;;;;;;8.98;2.03;;;4.90;93.10;;;;;;5130877;27;20379;-67
2021/01/30 03:01:04;;;;;;;5.35;2.08;;;4.90;93.20;;;;;;5130885;27;20517;-67
2021/01/30 03:03:31;;;;;;;3.92;1.80;;;5.10;92.90;;;;;;5130737;27;20038;-67
2021/01/30 03:06:04;;;;;;;5.57;1.70;;;5.10;93.10;;;;;;5130635;27;20027;-66
2021/01/30 03:08:38;;;;;;;5.15;1.40;;;5.10;92.70;;;;;;5130575;27;20031;-67
2021/01/30 03:11:23;;;;;;;8.13;1.65;;;5.10;92.70;;;;;;5130584;27;20554;-67
2021/01/30 03:14:12;;;;;;;4.20;1.77;;;5.00;92.70;;;;;;5130436;27;20110;-66
2021/01/30 03:16:40;;;;;;;6.38;1.73;;;5.00;92.80;;;;;;5130617;27;20542;-66
2021/01/30 03:19:20;;;;;;;7.50;2.35;;;4.90;92.90;;;;;;5130562;27;20039;-67
2021/01/30 03:21:50;;;;;;;4.13;1.50;;;4.90;93.00;;;;;;5130267;27;20038;-66
2021/01/30 03:24:16;;;;;;;3.50;1.13;;;4.90;93.10;;;;;;5130249;27;20069;-67
2021/01/30 03:26:43;;;;;;;;;;;4.90;93.10;;;;;;5130821;27;20499;-66
2021/01/30 03:29:16;;;;;;;7.60;1.83;;;4.90;92.90;;;;;;5130339;27;19914;-67
2021/01/30 03:31:41;;;;;;;3.65;1.38;;;4.90;92.80;;;;;;5130088;27;20075;-66
2021/01/30 03:34:07;;;;;;;;;;;4.90;92.80;;;;;;5130434;27;20520;-67
2021/01/30 03:36:33;;;;;;;5.60;2.15;;;4.90;92.70;;;;;;5130334;27;20469;-67
2021/01/30 03:38:59;;;;;;;;;;;4.80;92.70;;;;;;5130660;27;20679;-67
2021/01/30 03:41:24;;;;;;;2.22;1.10;;;4.80;92.70;;;;;;5130096;27;19907;-67
2021/01/30 03:43:50;;;;;;;;;;;4.70;93.00;;;;;;5130670;27;20031;-67
2021/01/30 03:46:15;;;;;;;4.85;1.70;;;4.70;92.60;;;;;;5129857;27;19907;-67
2021/01/30 03:48:41;;;;;;;;;;;4.60;92.60;;;;;;5129532;27;20076;-67
2021/01/30 03:51:07;;;;;;;4.63;2.30;;;4.40;92.80;;;;;;5129811;27;19915;-67
2021/01/30 03:53:32;;;;;;;;;;;4.30;92.90;;;;;;5112071;27;20031;-67
2021/01/30 03:55:58;;;;;;;5.20;2.33;;;4.20;93.10;;;;;;5129629;27;19903;-67
2021/01/30 03:58:24;;;;;;;;;;;4.10;93.40;;;;;;5130399;27;20033;-67
2021/01/30 04:00:49;;;;;;;5.90;2.25;;;4.10;93.70;;;;;;5129902;27;20324;-67
2021/01/30 04:03:15;;;;;;;;;;;4.10;93.90;;;;;;5130460;27;20034;-66
2021/01/30 04:05:40;;;;;;;4.72;2.15;;;4.10;94.10;;;;;;5129847;27;19998;-66
2021/01/30 04:08:06;;;;;;;;;;;4.00;94.20;;;;;;5130257;27;20142;-64
2021/01/30 04:10:36;;;;;;;7.38;2.47;;;4.10;94.30;;;;;;5129643;27;20405;-66
2021/01/30 04:13:04;;;;;;;7.85;2.53;;;4.10;94.30;;;;;;5129449;27;20035;-66
2021/01/30 04:15:34;;;;;;;6.93;3.15;;;4.10;94.20;;;;;;5129536;27;20127;-65
2021/01/30 04:18:00;;;;;;;6.03;2.95;;;4.10;94.30;;;;;;5129361;27;20031;-65
2021/01/30 04:20:26;;;;;;;5.03;2.55;;;4.10;94.40;;;;;;5129418;27;20254;-66
2021/01/30 04:22:51;;;;;;;;;;;4.10;94.40;;;;;;5129928;27;20534;-65
2021/01/30 04:25:20;;;;;;;7.97;2.97;;;4.00;94.50;;;;;;5129479;27;20006;-66
2021/01/30 04:27:45;;;;;;;5.70;2.55;;;4.10;94.60;;;;;;5129476;27;20019;-66
2021/01/30 04:30:13;;;;;;;;;;;4.10;94.50;;;;;;5129671;27;20088;-67
2021/01/30 04:32:39;;;;;;;5.68;2.72;;;4.00;94.40;;;;;;5129358;27;19911;-66
2021/01/30 04:35:06;;;;;;;;;;;4.00;94.30;;;;;;5129710;27;20116;-66
2021/01/30 04:37:32;;;;;;;6.15;2.90;;;4.00;94.30;;;;;;5110907;28;19915;-66
2021/01/30 04:39:57;;;;;;;;;;;4.00;94.30;;;;;;5129698;27;20046;-65
2021/01/30 04:42:36;;;;;;;8.95;3.78;;;3.90;94.30;;;;;;5129256;27;19903;-66
2021/01/30 04:45:24;;;;;;;4.43;2.63;;;4.00;94.40;;;;;;5129254;27;20019;-67
2021/01/30 04:48:14;;;;;;;7.55;3.30;;;3.90;94.50;;;;;;5129030;28;20084;-66
2021/01/30 04:50:54;;;;;;;4.57;3.00;;;3.90;94.70;;;;;;5129092;28;20114;-67
2021/01/30 04:54:00;;;;;;;5.90;2.45;;;3.90;94.90;;;;;;5129207;28;20038;-66
2021/01/30 04:56:37;;;;;;;4.28;2.60;;;3.90;94.80;;;;;;5110586;28;20023;-67
2021/01/30 04:59:17;;;;;;;5.15;2.58;;;3.90;94.80;;;;;;5128967;27;20495;-66
2021/01/30 05:02:01;;;;;;;5.40;2.78;;;3.90;94.80;;;;;;5133204;27;20046;-66
2021/01/30 05:04:32;;;;;;;5.53;2.55;;;3.90;94.70;;;;;;5133063;27;20031;-68
2021/01/30 05:07:40;;;;;;;5.13;2.50;;;3.90;94.70;;;;;;5133056;27;20027;-68
2021/01/30 05:10:18;;;;;;;;;;;3.90;94.60;;;;;;5120126;27;20090;-67
2021/01/30 05:12:55;;;;;;;9.50;2.35;;;3.90;94.60;;;;;;5133093;27;19954;-67
2021/01/30 05:15:36;;;;;;;5.00;2.28;;;3.90;94.60;;;;;;5114390;27;20027;-67
2021/01/30 05:18:09;;;;;;;3.40;2.22;;;3.80;94.60;;;;;;5132817;27;20019;-67
2021/01/30 05:20:38;;;;;;;3.72;2.00;;;3.80;94.60;;;;;;5133151;27;20378;-67
2021/01/30 05:23:06;;;;;;;5.32;2.40;;;3.80;94.60;;;;;;5132806;27;20035;-68
2021/01/30 05:25:32;;;;;;;5.32;2.85;;;3.80;94.60;;;;;;5132616;27;20140;-67
2021/01/30 05:28:01;;;;;;;;;;;3.80;94.60;;;;;;5133110;27;20205;-67
2021/01/30 05:30:49;;;;;;;5.35;1.92;;;3.70;94.70;;;;;;5132534;27;19912;-68
2021/01/30 05:33:30;;;;;;;4.22;2.30;;;3.80;94.70;;;;;;5132688;27;20491;-67
2021/01/30 05:36:07;;;;;;;5.68;2.42;;;3.70;94.60;;;;;;5132228;27;20027;-67
2021/01/30 05:39:02;;;;;;;6.25;2.78;;;3.70;94.50;;;;;;5132586;27;20030;-68
2021/01/30 05:41:30;;;;;;;5.05;2.58;;;3.70;94.60;;;;;;5091102;27;20039;-68
2021/01/30 05:44:05;;;;;;;8.13;2.85;;;3.60;94.70;;;;;;5132237;27;20036;-65
2021/01/30 05:46:31;;;;;;;4.32;2.75;;;3.50;94.80;;;;;;5132328;27;20030;-67
2021/01/30 05:49:01;;;;;;;5.70;2.65;;;3.50;94.80;;;;;;5132282;27;20031;-67
2021/01/30 05:51:49;;;;;;;4.60;2.92;;;3.50;94.80;;;;;;5113725;27;20563;-68
2021/01/30 05:54:15;;;;;;;4.38;2.60;;;3.50;94.80;;;;;;5132154;27;20495;-68
2021/01/30 05:56:42;;;;;;;;;;;3.50;94.90;;;;;;5132698;27;20072;-68
2021/01/30 05:59:23;;;;;;;6.45;3.10;;;3.50;95.00;;;;;;5132154;27;19994;-68
2021/01/30 06:01:49;;;;;;;7.65;3.53;;;3.50;95.00;;;;;;5131816;27;20083;-67
2021/01/30 06:04:24;;;;;;;;;;;3.50;95.00;;;;;;5132551;27;20035;-67
2021/01/30 06:06:53;;;;;;;5.10;2.17;;;3.50;95.10;;;;;;5131924;27;20288;-68
2021/01/30 06:09:39;;;;;;;4.43;2.30;;;3.50;95.00;;;;;;5131791;27;20043;-67
2021/01/30 06:12:27;;;;;;;6.82;1.98;;;3.60;95.00;;;;;;5130589;27;20491;-69
2021/01/30 06:14:56;;;;;;;5.45;2.00;;;3.70;94.80;;;;;;5131739;27;20488;-67
2021/01/30 06:17:21;;;;;;;5.90;2.50;;;3.70;94.70;;;;;;5131802;27;20556;-67
2021/01/30 06:20:08;;;;;;;;;;;3.70;94.60;;;;;;5132144;27;20035;-67
2021/01/30 06:22:34;;;;;;;5.38;2.50;;;3.70;94.50;;;;;;5131680;27;20398;-68
2021/01/30 06:25:19;;;;;;;;;;;3.60;94.40;;;;;;5131955;27;20030;-68
2021/01/30 06:27:45;;;;;;;5.68;2.78;;;3.70;94.20;;;;;;5131649;27;19913;-67
2021/01/30 06:30:14;;;;;;;;;;;3.70;94.10;;;;;;5113338;27;20035;-68
2021/01/30 06:32:47;;;;;;;6.65;3.10;;;3.70;94.00;;;;;;5131415;27;19915;-68
2021/01/30 06:35:19;;;;;;;8.50;3.42;;;3.80;93.90;;;;;;5131405;27;20023;-68
2021/01/30 06:38:04;;;;;;;5.00;2.83;;;3.80;93.80;;;;;;5131275;27;20023;-68
2021/01/30 06:40:35;;;;;;;5.25;2.88;;;3.80;93.90;;;;;;5131256;27;20030;-68
2021/01/30 06:43:11;;;;;;;5.50;2.90;;;3.80;93.80;;;;;;5131218;27;20036;-68
2021/01/30 06:45:40;;;;;;;7.15;3.53;;;3.90;93.70;;;;;;5131160;27;20027;-68
2021/01/30 06:48:08;;;;;;;6.53;2.95;;;3.90;93.70;;;;;;5131162;27;20639;-68
2021/01/30 06:50:42;;;;;;;5.80;3.17;;;3.90;93.70;;;;;;5131191;27;20027;-68
2021/01/30 06:53:14;;;;;;;8.02;4.35;;;4.10;93.80;;;;;;5130949;27;20071;-67
2021/01/30 06:55:40;;;;;;;9.07;3.22;;;4.40;93.70;;;;;;5130888;27;20027;-68
2021/01/30 06:58:07;;;;;;;;;;;4.90;93.30;;;;;;5131349;27;20053;-68
2021/01/30 07:00:35;;;;;;;5.25;2.92;;;5.60;91.60;;;;;;5130954;27;19913;-68
2021/01/30 07:03:07;;;;;;;3.42;1.92;;;6.30;89.70;;;;;;5130865;27;20027;-68
2021/01/30 07:05:35;;;;;;;6.70;2.40;;;6.80;86.60;;;;;;5130760;27;20023;-69
2021/01/30 07:08:27;;;;;;;3.70;1.63;;;7.30;84.30;;;;;;5130731;27;20031;-68
2021/01/30 07:11:34;;;;;;;3.53;1.73;;;7.90;81.40;;;;;;5130518;27;20587;-68
2021/01/30 07:14:40;;;;;;;4.88;2.45;;;8.30;77.70;;;;;;5112266;27;20031;-68
2021/01/30 07:17:30;;;;;;;5.35;1.67;;;8.40;76.30;;;;;;5130550;27;20039;-68
2021/01/30 07:20:22;;;;;;;6.53;1.98;;;8.70;74.80;;;;;;5130506;27;20035;-68
2021/01/30 07:22:54;;;;;;;3.70;1.45;;;9.20;73.00;;;;;;5130357;27;20023;-68
2021/01/30 07:25:24;;;;;;;5.03;1.30;;;9.50;72.60;;;;;;5130485;27;20080;-66
2021/01/30 07:27:59;;;;;;;3.28;1.48;;;9.70;71.20;;;;;;5130422;27;20031;-68
2021/01/30 07:31:10;;;;;;;3.28;1.50;;;9.90;69.80;;;;;;5130248;27;20373;-68
2021/01/30 07:34:05;;;;;;;3.03;1.25;;;9.80;69.80;;;;;;5107970;27;20046;-67
2021/01/30 07:36:40;;;;;;;3.95;2.13;;;9.70;69.80;;;;;;5129318;27;20031;-68
2021/01/30 07:39:18;;;;;;;6.80;2.00;;;9.70;70.20;;;;;;5130039;27;20038;-70
2021/01/30 07:41:58;;;;;;;6.00;2.55;;;9.80;70.10;;;;;;5130000;27;20047;-67
2021/01/30 07:44:35;;;;;;;4.22;1.63;;;9.80;70.00;;;;;;5129986;27;20057;-67
2021/01/30 07:47:14;;;;;;;5.45;1.48;;;10.00;68.80;;;;;;5129916;27;20031;-68
2021/01/30 07:49:44;;;;;;;6.55;3.03;;;10.10;68.00;;;;;;5129910;27;20023;-69
2021/01/30 07:52:41;;;;;;;5.18;2.63;;;10.00;68.90;;;;;;5129560;27;20035;-68
2021/01/30 07:55:10;;;;;;;4.95;2.33;;;9.50;69.50;;;;;;5128337;27;20043;-68
2021/01/30 07:58:03;;;;;;;9.13;2.13;;;9.20;70.50;;;;;;5129788;27;20396;-67
2021/01/30 08:00:49;;;;;;;4.30;1.95;;;9.00;71.70;;;;;;5129672;27;20019;-68
2021/01/30 08:03:33;;;;;;;6.30;1.70;;;9.00;72.50;;;;;;5129796;27;20027;-68
2021/01/30 08:06:20;;;;;;;4.10;2.15;;;9.10;72.20;;;;;;5129552;27;20080;-68
2021/01/30 08:09:02;;;;;;;5.43;1.92;;;9.20;72.30;;;;;;5129277;27;20582;-68
2021/01/30 08:12:07;;;;;;;5.30;2.40;;;9.40;72.30;;;;;;5129327;27;20023;-69
2021/01/30 08:14:57;;;;;;;7.72;2.60;;;9.50;72.30;;;;;;5103177;27;20050;-68
2021/01/30 08:17:51;;;;;;;5.13;2.53;;;9.70;71.90;;;;;;5113065;27;20098;-67
2021/01/30 08:20:32;;;;;;;8.25;2.65;;;9.80;70.70;;;;;;5129389;27;20020;-66
2021/01/30 08:23:36;;;;;;;7.57;3.28;;;9.50;71.20;;;;;;5129274;27;20393;-67
2021/01/30 08:26:25;;;;;;;4.80;2.00;;;9.10;72.40;;;;;;5113246;27;20088;-67
2021/01/30 08:29:12;;;;;;;6.95;2.53;;;9.10;73.40;;;;;;5128806;27;20054;-67
2021/01/30 08:31:51;;;;;;;4.85;1.77;;;9.10;73.20;;;;;;5129305;27;20558;-68
2021/01/30 08:34:19;;;;;;;4.95;2.13;;;9.00;72.90;;;;;;5128900;27;20447;-68
2021/01/30 08:36:51;;;;;;;6.72;2.67;;;8.90;73.30;;;;;;5129328;28;20062;-67
2021/01/30 08:39:22;;;;;;;11.10;3.45;;;8.80;73.90;;;;;;5129198;28;20030;-67
2021/01/30 08:42:17;;;;;;;7.05;2.20;;;8.70;74.60;;;;;;5128940;28;20027;-67
2021/01/30 08:44:51;;;;;;;6.30;3.20;;;8.60;74.70;;;;;;5128884;28;20027;-68
2021/01/30 08:47:35;;;;;;;7.15;2.33;;;9.10;74.60;;;;;;5129276;28;20031;-67
2021/01/30 08:50:04;;;;;;;6.97;1.85;;;9.90;73.70;;;;;;5129100;28;20031;-67
2021/01/30 08:52:35;;;;;;;3.72;1.52;;;10.90;70.20;;;;;;5129003;28;20035;-68
2021/01/30 08:55:38;;;;;;;3.63;1.25;;;11.70;67.40;;;;;;5128998;28;20027;-68
2021/01/30 08:58:04;;;;;;;2.70;1.27;;;12.50;64.70;;;;;;5110536;28;20031;-68
2021/01/30 09:00:36;;;;;;;4.78;2.30;;;12.80;62.60;;;;;;5128987;28;20074;-68
2021/01/30 09:03:05;;;;;;;3.97;1.50;;;12.60;62.80;;;;;;5128915;28;20046;-67
2021/01/30 09:05:33;;;;;;;3.22;1.52;;;12.40;63.20;;;;;;5129020;28;20503;-68
2021/01/30 09:08:15;;;;;;;5.07;2.17;;;12.20;62.70;;;;;;5129068;28;20027;-67
2021/01/30 09:10:41;;;;;;;6.20;2.42;;;12.00;63.40;;;;;;5128811;28;20089;-68
2021/01/30 09:13:07;;;;;;;2.40;0.95;;;11.40;64.80;;;;;;5128911;28;20032;-69
2021/01/30 09:15:53;;;;;;;;;;;11.10;66.10;;;;;;5129275;28;20097;-67
2021/01/30 09:18:31;;;;;;;3.38;0.93;;;10.70;67.10;;;;;;5127296;28;20428;-66
2021/01/30 09:21:14;;;;;;;2.58;1.05;;;10.30;69.20;;;;;;5128006;28;20483;-67
2021/01/30 09:24:13;;;;;;;3.85;1.33;;;10.00;70.70;;;;;;5127822;28;20023;-67
2021/01/30 09:27:08;;;;;;;3.55;1.05;;;9.60;72.00;;;;;;5128084;28;20054;-67
2021/01/30 09:29:46;;;;;;;3.58;1.27;;;9.20;73.30;;;;;;5034149;28;20041;-68
2021/01/30 09:32:14;;;;;;;2.17;0.70;;;8.90;74.90;;;;;;5103773;28;20065;-68
2021/01/30 09:34:50;;;;;;;2.90;0.73;;;8.70;76.10;;;;;;5128943;27;20028;-66
2021/01/30 09:37:32;;;;;;;2.75;0.85;;;8.60;77.10;;;;;;5128751;27;20457;-67
2021/01/30 09:39:59;;;;;;;4.00;0.82;;;8.60;77.70;;;;;;5128565;27;20027;-68
2021/01/30 09:42:26;;;;;;;3.95;0.98;;;8.70;77.90;;;;;;5128804;28;20034;-68
2021/01/30 09:45:03;;;;;;;2.25;0.77;;;8.70;78.30;;;;;;5128525;28;20574;-67
2021/01/30 09:47:29;;;;;;;2.85;0.70;;;9.00;78.30;;;;;;5112202;27;20080;-68
2021/01/30 09:50:07;;;;;;;;;;;9.20;78.50;;;;;;5132363;27;20019;-69
2021/01/30 09:52:32;;;;;;;1.90;0.50;;;9.40;77.50;;;;;;5132280;27;19967;-68
2021/01/30 09:55:07;;;;;;;;;;;9.50;76.10;;;;;;5132530;27;20027;-68
2021/01/30 09:57:35;;;;;;;1.38;0.50;;;9.40;75.70;;;;;;5132093;27;20345;-68
2021/01/30 10:00:08;;;;;;;2.40;0.80;;;9.30;76.10;;;;;;5131851;27;20050;-67
2021/01/30 10:02:34;;;;;;;1.42;0.50;;;9.10;76.60;;;;;;5131625;27;20072;-67
2021/01/30 10:05:05;;;;;;;;;;;9.00;77.40;;;;;;5132392;27;20031;-65
2021/01/30 10:07:31;;;;;;;1.77;0.63;;;8.90;77.90;;;;;;5131662;27;19956;-68
2021/01/30 10:09:57;;;;;;;;;;;8.80;78.00;;;;;;5132296;27;20051;-67
2021/01/30 10:12:24;;;;;;;1.67;0.60;;;8.80;78.20;;;;;;5131902;27;19915;-67
2021/01/30 10:14:53;;;;;;;1.20;0.47;;;8.70;78.20;;;;;;5131787;27;20035;-66
2021/01/30 10:17:21;;;;;;;4.28;1.10;;;8.60;78.30;;;;;;5131635;27;20019;-66
2021/01/30 10:20:10;;;;;;;5.15;0.90;;;8.50;78.50;;;;;;5131914;27;20023;-66
2021/01/30 10:22:50;;;;;;;3.17;0.95;;;8.40;79.20;;;;;;5131676;27;20034;-66
2021/01/30 10:25:24;;;;;;;1.50;0.68;;;8.40;79.40;;;;;;5113634;27;20488;-66
2021/01/30 10:28:09;;;;;;;2.38;0.50;;;8.30;79.00;;;;;;5131338;27;20038;-66
2021/01/30 10:30:35;;;;;;;1.00;0.43;;;8.40;79.00;;;;;;5131546;27;20016;-67
2021/01/30 10:33:02;;;;;;;;;;;8.30;78.60;;;;;;5131792;27;20050;-67
2021/01/30 10:35:48;;;;;;;2.80;0.70;;;8.30;78.70;;;;;;5130729;27;20052;-67
2021/01/30 10:38:17;;;;;;;1.20;0.50;;;8.30;78.80;;;;;;5130527;27;20121;-67
2021/01/30 10:40:58;;;;;;;1.30;0.40;;;8.50;77.80;;;;;;5112827;27;20058;-67
2021/01/30 10:43:35;;;;;;;2.35;0.70;;;8.50;77.60;;;;;;5111300;27;20399;-68
2021/01/30 10:46:08;;;;;;;1.67;0.50;;;8.70;76.20;;;;;;5130870;27;20099;-66
2021/01/30 10:48:38;;;;;;;2.28;0.50;;;8.70;76.30;;;;;;5130821;27;20023;-68
2021/01/30 10:51:15;;;;;;;3.05;0.60;;;8.80;74.50;;;;;;5130877;27;20106;-68
2021/01/30 10:53:41;;;;;;;2.17;0.70;;;8.80;74.20;;;;;;5130676;27;20050;-68
2021/01/30 10:56:19;;;;;;;;;;;8.80;74.30;;;;;;5131187;27;20066;-66
2021/01/30 10:58:44;;;;;;;2.72;0.85;;;8.80;74.20;;;;;;5130543;27;19903;-68
2021/01/30 11:01:10;;;;;;;;;;;8.80;74.40;;;;;;5131380;27;20076;-67
2021/01/30 11:03:52;;;;;;;2.13;0.90;;;8.70;74.70;;;;;;5130774;27;20006;-67
2021/01/30 11:06:35;;;;;;;2.97;1.00;;;8.80;74.60;;;;;;5130946;27;20034;-67
2021/01/30 11:09:16;;;;;;;2.83;0.70;;;8.90;74.10;;;;;;5130765;27;20404;-67
2021/01/30 11:11:44;;;;;;;1.50;0.50;;;8.90;74.10;;;;;;5130405;27;20499;-67
2021/01/30 11:14:21;;;;;;;1.42;0.50;;;8.90;73.80;;;;;;5130277;27;20152;-67
2021/01/30 11:16:47;;;;;;;2.28;0.80;;;9.00;73.70;;;;;;5130299;27;20030;-67
2021/01/30 11:19:27;;;;;;;;;;;9.10;72.50;;;;;;5130899;27;20027;-67
2021/01/30 11:22:05;;;;;;;4.15;0.70;;;9.10;72.50;;;;;;5130312;27;20042;-67
2021/01/30 11:24:46;;;;;;;1.52;0.60;;;9.10;71.10;;;;;;5130378;27;20031;-67
2021/01/30 11:27:26;;;;;;;1.80;0.50;;;9.10;72.50;;;;;;5130515;27;20023;-68
2021/01/30 11:29:51;;;;;;;1.48;0.63;;;9.00;72.20;;;;;;5130286;27;20495;-68
2021/01/30 11:32:19;;;;;;;;;;;8.90;72.10;;;;;;5130665;27;20042;-68
2021/01/30 11:34:46;;;;;;;2.72;0.70;;;8.90;71.90;;;;;;5130144;27;19981;-68
2021/01/30 11:37:13;;;;;;;2.00;0.70;;;8.80;72.30;;;;;;5130134;27;20035;-68
2021/01/30 11:39:41;;;;;;;2.58;0.90;;;8.90;72.10;;;;;;5130001;27;20031;-68
2021/01/30 11:42:07;;;;;;;2.67;0.93;;;8.90;71.60;;;;;;5111570;27;20030;-67
2021/01/30 11:44:33;;;;;;;;;;;8.90;71.70;;;;;;5130535;27;20038;-69
2021/01/30 11:46:59;;;;;;;2.40;0.93;;;8.90;71.90;;;;;;5130114;27;19950;-68
2021/01/30 11:49:24;;;;;;;;;;;9.00;71.10;;;;;;5130384;27;20016;-68
2021/01/30 11:51:50;;;;;;;5.07;0.77;;;9.20;70.70;;;;;;5129787;27;20006;-68
2021/01/30 11:54:16;;;;;;;;;;;9.20;71.30;;;;;;5130576;27;20019;-68
2021/01/30 11:56:42;;;;;;;2.10;0.70;;;9.20;70.60;;;;;;5111525;27;20279;-68
2021/01/30 11:59:08;;;;;;;;;;;9.30;70.50;;;;;;5130265;27;20023;-68
2021/01/30 12:01:33;;;;;;;4.43;0.90;;;9.30;70.20;;;;;;5129369;27;19942;-68
2021/01/30 12:03:59;;;;;;;;;;;9.20;70.00;;;;;;5130061;27;20027;-68
2021/01/30 12:06:25;;;;;;;5.78;1.98;;;9.20;70.20;;;;;;5129662;27;19907;-68
2021/01/30 12:08:51;;;;;;;;;;;9.20;70.00;;;;;;5129472;27;20031;-68
2021/01/30 12:11:16;;;;;;;5.03;2.22;;;9.10;69.90;;;;;;5129354;27;19915;-69
2021/01/30 12:13:42;;;;;;;;;;;9.10;70.10;;;;;;5129721;27;20504;-68
2021/01/30 12:16:08;;;;;;;21.67;12.38;;;9.10;70.20;;;;;;5111336;27;19911;-68
2021/01/30 12:18:33;;;;;;;;;;;9.10;70.30;;;;;;5130058;27;20097;-68
2021/01/30 12:21:00;;;;;;;3.20;1.52;;;9.00;71.00;;;;;;5129274;27;19907;-68
2021/01/30 12:23:25;;;;;;;2.55;0.65;;;8.90;71.30;;;;;;5129567;27;20026;-68
2021/01/30 12:25:51;;;;;;;;;;;8.90;71.90;;;;;;5129777;27;20399;-69
2021/01/30 12:28:32;;;;;;;1.77;0.70;;;8.80;72.30;;;;;;5129281;27;19911;-69
2021/01/30 12:30:58;;;;;;;2.78;0.65;;;8.80;72.80;;;;;;5129238;27;20462;-67
2021/01/30 12:33:24;;;;;;;;;;;8.80;72.70;;;;;;5129513;28;20126;-67
2021/01/30 12:35:50;;;;;;;2.83;0.80;;;8.90;72.10;;;;;;5129181;28;19907;-68
2021/01/30 12:38:15;;;;;;;;;;;8.80;72.20;;;;;;5129655;28;20110;-67
2021/01/30 12:40:45;;;;;;;3.47;0.88;;;8.80;72.10;;;;;;5129231;28;19907;-66
2021/01/30 12:43:12;;;;;;;1.85;0.80;;;8.80;72.60;;;;;;5129195;28;20072;-68
2021/01/30 12:45:38;;;;;;;3.47;1.10;;;8.80;72.90;;;;;;5129134;28;20820;-68
2021/01/30 12:48:04;;;;;;;;;;;8.80;73.10;;;;;;5129505;27;20118;-68
2021/01/30 12:50:30;;;;;;;2.13;1.00;;;8.80;73.10;;;;;;5129170;28;19911;-68
2021/01/30 12:52:56;;;;;;;3.60;1.42;;;8.90;73.00;;;;;;5129017;27;20043;-68
2021/01/30 12:55:22;;;;;;;;;;;9.00;73.00;;;;;;5129475;28;20031;-67
2021/01/30 12:57:47;;;;;;;8.07;3.17;;;9.00;72.30;;;;;;5129017;28;19908;-69
2021/01/30 13:00:20;;;;;;;;;;;9.00;72.10;;;;;;5129335;28;20061;-68
2021/01/30 13:02:46;;;;;;;9.85;5.00;;;9.00;71.50;;;;;;5128893;28;20332;-67
2021/01/30 13:05:12;;;;;;;;;;;9.00;71.60;;;;;;5138355;27;20487;-69
2021/01/30 13:07:39;;;;;;;6.97;3.72;;;8.90;71.90;;;;;;5129392;27;19911;-68
2021/01/30 13:10:06;;;;;;;5.97;2.90;;;8.90;72.10;;;;;;5147093;27;20075;-69
2021/01/30 13:12:32;;;;;;;11.35;6.28;;;8.90;72.40;;;;;;5146687;27;20142;-68
2021/01/30 13:14:58;;;;;;;;;;;8.80;72.20;;;;;;5147694;27;20097;-68
2021/01/30 13:17:23;;;;;;;3.08;1.33;;;8.80;72.30;;;;;;5147424;27;20530;-68
2021/01/30 13:19:49;;;;;;;;;;;8.80;72.60;;;;;;5147519;27;20022;-69
2021/01/30 13:22:14;;;;;;;4.35;1.58;;;8.80;73.80;;;;;;5150756;27;19907;-68
2021/01/30 13:24:42;;;;;;;;;;;8.80;72.80;;;;;;5151365;27;20541;-68
2021/01/30 13:27:09;;;;;;;3.47;0.93;;;8.80;72.40;;;;;;5150576;27;19907;-68
2021/01/30 13:29:35;;;;;;;3.20;1.08;;;8.80;73.20;;;;;;5151306;27;20027;-69
2021/01/30 13:32:01;;;;;;;;;;;8.80;73.80;;;;;;5151166;27;20055;-68
2021/01/30 13:34:27;;;;;;;3.47;1.20;;;8.80;73.70;;;;;;5151261;27;19990;-69
2021/01/30 13:36:54;;;;;;;2.67;1.05;;;8.80;74.10;;;;;;5132253;27;20027;-67
2021/01/30 13:39:20;;;;;;;2.03;0.82;;;8.80;74.80;;;;;;5151044;27;20026;-69
2021/01/30 13:41:47;;;;;;;3.40;0.80;;;8.70;75.50;;;;;;5150455;27;20023;-67